createdAt,value
2022-11-28T00:00:17.857Z,101147.82
2022-11-28T00:01:31.820Z,101151.27
2022-11-28T00:02:35.901Z,101150.42
2022-11-28T00:03:40.152Z,101151.27
2022-11-28T00:04:44.510Z,101151.27
2022-11-28T00:05:48.701Z,101157.45
2022-11-28T00:06:52.952Z,101157.45
2022-11-28T00:07:57.205Z,101159.20
2022-11-28T00:09:01.592Z,101159.20
2022-11-28T00:10:06.662Z,101155.62
2022-11-28T00:11:12.343Z,101159.97
2022-11-28T00:12:16.250Z,101155.62
2022-11-28T00:13:20.132Z,101163.55
2022-11-28T00:14:24.165Z,101163.55
2022-11-28T00:15:28.011Z,101166.19
2022-11-28T00:16:32.039Z,101166.19
2022-11-28T00:17:36.049Z,101163.55
2022-11-28T00:18:39.893Z,101171.48
2022-11-28T00:19:43.759Z,101161.76
2022-11-28T00:20:49.119Z,101161.76
2022-11-28T00:21:53.040Z,101163.50
2022-11-28T00:22:56.971Z,101167.90
2022-11-28T00:24:01.987Z,101167.05
2022-11-28T00:25:06.266Z,101167.05
2022-11-28T00:26:22.154Z,101175.83
2022-11-28T00:27:25.996Z,101169.77
2022-11-28T00:28:29.894Z,101166.19
2022-11-28T00:29:35.431Z,101164.48
2022-11-28T00:30:39.526Z,101164.48
2022-11-28T00:31:43.609Z,101175.05
2022-11-28T00:32:47.777Z,101169.77
2022-11-28T00:33:51.846Z,101170.62
2022-11-28T00:34:55.762Z,101170.62
2022-11-28T00:36:01.918Z,101168.03
2022-11-28T00:37:05.892Z,101170.67
2022-11-28T00:38:09.870Z,101170.67
2022-11-28T00:39:14.463Z,101167.12
2022-11-28T00:40:18.607Z,101168.03
2022-11-28T00:41:25.298Z,101167.12
2022-11-28T00:42:35.127Z,101163.68
2022-11-28T00:43:42.827Z,101163.68
2022-11-28T00:44:47.076Z,101168.91
2022-11-28T00:45:51.024Z,101168.91
2022-11-28T00:46:55.054Z,101168.91
2022-11-28T00:47:59.013Z,101169.77
2022-11-28T00:49:04.877Z,101167.17
2022-11-28T00:50:09.540Z,101166.32
2022-11-28T00:51:16.847Z,101166.32
2022-11-28T00:52:20.746Z,101171.61
2022-11-28T00:53:24.617Z,101160.19
2022-11-28T00:54:28.511Z,101165.39
2022-11-28T00:55:32.337Z,101165.39
2022-11-28T00:56:39.330Z,101163.68
2022-11-28T00:57:44.722Z,101161.03
2022-11-28T00:58:48.991Z,101154.95
2022-11-28T00:59:52.816Z,101154.90
2022-11-28T01:00:56.861Z,101157.59
2022-11-28T01:02:00.895Z,101157.59
2022-11-28T01:03:05.197Z,101158.45
2022-11-28T01:04:11.949Z,101156.73
2022-11-28T01:05:15.925Z,101157.59
2022-11-28T01:06:32.052Z,101157.59
2022-11-28T01:07:36.030Z,101164.61
2022-11-28T01:08:40.031Z,101156.69
2022-11-28T01:09:43.932Z,101157.59
2022-11-28T01:10:47.843Z,101159.37
2022-11-28T01:11:53.930Z,101158.58
2022-11-28T01:12:57.771Z,101158.58
2022-11-28T01:14:02.348Z,101156.87
2022-11-28T01:15:11.106Z,101154.27
2022-11-28T01:16:15.767Z,101150.73
2022-11-28T01:17:19.697Z,101151.63
2022-11-28T01:18:23.659Z,101137.72
2022-11-28T01:19:27.606Z,101154.27
2022-11-28T01:20:31.607Z,101154.27
2022-11-28T01:21:36.047Z,101156.06
2022-11-28T01:22:40.009Z,101156.92
2022-11-28T01:23:44.092Z,101163.98
2022-11-28T01:24:47.999Z,101161.30
2022-11-28T01:25:51.926Z,101166.59
2022-11-28T01:26:55.876Z,101158.66
2022-11-28T01:27:59.859Z,101163.05
2022-11-28T01:29:03.870Z,101163.00
2022-11-28T01:30:08.763Z,101160.36
2022-11-28T01:31:16.771Z,101155.08
2022-11-28T01:32:20.867Z,101157.72
2022-11-28T01:33:26.364Z,101157.72
2022-11-28T01:34:30.246Z,101068.44
2022-11-28T01:35:34.175Z,101168.29
2022-11-28T01:36:38.121Z,101157.72
2022-11-28T01:37:42.187Z,101163.00
2022-11-28T01:38:46.673Z,101150.65
2022-11-28T01:39:50.539Z,101153.29
2022-11-28T01:40:55.932Z,101157.67
2022-11-28T01:42:00.009Z,101155.08
2022-11-28T01:43:03.982Z,101155.08
2022-11-28T01:44:19.760Z,101161.16
2022-11-28T01:45:29.670Z,101168.29
2022-11-28T01:46:34.812Z,101171.73
2022-11-28T01:47:39.294Z,101168.29
2022-11-28T01:48:43.582Z,101166.59
2022-11-28T01:49:50.219Z,101157.72
2022-11-28T01:50:56.978Z,101164.80
2022-11-28T01:52:03.941Z,101170.94
2022-11-28T01:53:10.844Z,101169.23
2022-11-28T01:54:16.794Z,101167.44
2022-11-28T01:55:23.661Z,101166.59
2022-11-28T01:56:36.262Z,101166.59
2022-11-28T01:57:41.429Z,101166.59
2022-11-28T01:58:48.314Z,101167.48
2022-11-28T01:59:58.259Z,101166.59
2022-11-28T02:01:05.521Z,101172.72
2022-11-28T02:02:12.727Z,101163.05
2022-11-28T02:03:21.356Z,101166.63
2022-11-28T02:04:28.095Z,101165.70
2022-11-28T02:05:33.700Z,101162.20
2022-11-28T02:06:37.761Z,101167.48
2022-11-28T02:07:43.141Z,101163.98
2022-11-28T02:08:47.246Z,101168.47
2022-11-28T02:09:51.171Z,101164.07
2022-11-28T02:11:17.514Z,101161.43
2022-11-28T02:12:49.974Z,101164.92
2022-11-28T02:14:29.802Z,101165.83
2022-11-28T02:16:12.854Z,101165.83
2022-11-28T02:17:25.715Z,101164.17
2022-11-28T02:18:35.385Z,101166.03
2022-11-28T02:20:01.552Z,101168.68
2022-11-28T02:21:33.939Z,101171.38
2022-11-28T02:22:57.485Z,101170.52
2022-11-28T02:24:07.272Z,101168.00
2022-11-28T02:25:34.980Z,101172.35
2022-11-28T02:26:56.676Z,101174.14
2022-11-28T02:28:36.726Z,101174.14
2022-11-28T02:30:04.321Z,101172.48
2022-11-28T02:31:11.314Z,101172.48
2022-11-28T02:32:36.000Z,101172.48
2022-11-28T02:33:48.801Z,101172.48
2022-11-28T02:35:07.531Z,101177.77
2022-11-28T02:36:17.368Z,101179.55
2022-11-28T02:37:35.972Z,101176.83
2022-11-28T02:38:54.711Z,101185.64
2022-11-28T02:40:10.475Z,101178.62
2022-11-28T02:41:32.414Z,101178.62
2022-11-28T02:42:42.255Z,101184.66
2022-11-28T02:44:22.328Z,101179.37
2022-11-28T02:45:40.969Z,101183.77
2022-11-28T02:46:50.618Z,101186.50
2022-11-28T02:47:57.514Z,101182.92
2022-11-28T02:49:06.521Z,101189.99
2022-11-28T02:50:28.787Z,101189.99
2022-11-28T02:51:42.454Z,101194.34
2022-11-28T02:52:49.398Z,101190.84
2022-11-28T02:53:55.656Z,101193.48
2022-11-28T02:55:00.795Z,101193.48
2022-11-28T02:56:05.719Z,101190.84
2022-11-28T02:57:10.164Z,101190.80
2022-11-28T02:58:14.105Z,101177.26
2022-11-28T02:59:40.577Z,101189.94
2022-11-28T03:00:47.174Z,101197.80
2022-11-28T03:01:51.261Z,101193.36
2022-11-28T03:03:02.363Z,101194.22
2022-11-28T03:04:14.905Z,101196.86
2022-11-28T03:05:21.741Z,101196.86
2022-11-28T03:06:37.304Z,101191.52
2022-11-28T03:07:50.090Z,101194.17
2022-11-28T03:09:13.637Z,101192.45
2022-11-28T03:10:32.341Z,101192.45
2022-11-28T03:11:55.856Z,101193.36
2022-11-28T03:13:20.323Z,101193.36
2022-11-28T03:14:27.182Z,101197.80
2022-11-28T03:15:34.093Z,101189.94
2022-11-28T03:16:43.799Z,101195.23
2022-11-28T03:18:08.782Z,101196.94
2022-11-28T03:19:27.644Z,101194.34
2022-11-28T03:20:46.741Z,101194.34
2022-11-28T03:22:10.146Z,101196.26
2022-11-28T03:23:44.088Z,101196.26
2022-11-28T03:24:51.010Z,101207.76
2022-11-28T03:25:57.866Z,101193.79
2022-11-28T03:27:04.884Z,101193.02
2022-11-28T03:28:14.382Z,101198.30
2022-11-28T03:29:27.402Z,101195.66
2022-11-28T03:30:34.414Z,101195.66
2022-11-28T03:31:41.409Z,101196.52
2022-11-28T03:32:48.385Z,101203.58
2022-11-28T03:33:58.046Z,101196.43
2022-11-28T03:35:11.007Z,101194.64
2022-11-28T03:36:23.673Z,101199.03
2022-11-28T03:37:33.234Z,101197.28
2022-11-28T03:38:40.110Z,101192.89
2022-11-28T03:39:46.957Z,101197.28
2022-11-28T03:40:53.881Z,101197.28
2022-11-28T03:42:12.537Z,101201.67
2022-11-28T03:43:22.321Z,101206.95
2022-11-28T03:44:31.879Z,101204.31
2022-11-28T03:45:53.619Z,101209.59
2022-11-28T03:47:01.045Z,101205.16
2022-11-28T03:48:14.045Z,101207.80
2022-11-28T03:49:26.641Z,101204.31
2022-11-28T03:50:36.812Z,101204.31
2022-11-28T03:51:42.288Z,101210.45
2022-11-28T03:52:53.632Z,101211.30
2022-11-28T03:54:06.202Z,101209.52
2022-11-28T03:55:13.138Z,101212.23
2022-11-28T03:56:20.082Z,101220.08
2022-11-28T03:57:26.963Z,101221.87
2022-11-28T03:58:36.582Z,101221.87
2022-11-28T03:59:43.497Z,101227.96
2022-11-28T04:00:50.430Z,101227.02
2022-11-28T04:02:09.353Z,101218.20
2022-11-28T04:03:18.809Z,101225.27
2022-11-28T04:04:50.823Z,101219.91
2022-11-28T04:06:06.529Z,101225.31
2022-11-28T04:07:16.273Z,101225.31
2022-11-28T04:08:29.255Z,101231.45
2022-11-28T04:09:42.136Z,101227.02
2022-11-28T04:11:03.911Z,101227.02
2022-11-28T04:12:13.635Z,101227.02
2022-11-28T04:13:39.084Z,101228.81
2022-11-28T04:14:45.928Z,101213.04
2022-11-28T04:16:04.677Z,101218.33
2022-11-28T04:17:17.375Z,101228.89
2022-11-28T04:18:39.535Z,101221.87
2022-11-28T04:19:46.481Z,101221.87
2022-11-28T04:21:02.499Z,101224.51
2022-11-28T04:22:09.429Z,101224.51
2022-11-28T04:23:16.303Z,101224.51
2022-11-28T04:24:23.281Z,101223.66
2022-11-28T04:25:30.242Z,101224.51
2022-11-28T04:26:42.411Z,101222.72
2022-11-28T04:27:51.949Z,101228.89
2022-11-28T04:28:58.825Z,101221.74
2022-11-28T04:30:04.740Z,101221.74
2022-11-28T04:31:10.168Z,101223.61
2022-11-28T04:32:16.657Z,101223.61
2022-11-28T04:33:23.471Z,101218.33
2022-11-28T04:34:30.401Z,101216.58
2022-11-28T04:35:38.763Z,101216.58
2022-11-28T04:36:44.086Z,101216.58
2022-11-28T04:37:50.619Z,101226.25
2022-11-28T04:38:56.671Z,101220.03
2022-11-28T04:40:01.879Z,101220.03
2022-11-28T04:41:17.607Z,101220.03
2022-11-28T04:42:27.259Z,101226.17
2022-11-28T04:43:34.246Z,101226.17
2022-11-28T04:44:41.359Z,101226.17
2022-11-28T04:45:48.500Z,101231.53
2022-11-28T04:46:55.627Z,101231.53
2022-11-28T04:48:00.043Z,101234.17
2022-11-28T04:49:04.114Z,101233.24
2022-11-28T04:50:09.527Z,101244.74
2022-11-28T04:51:25.247Z,101243.77
2022-11-28T04:52:32.160Z,101243.77
2022-11-28T04:53:39.054Z,101242.88
2022-11-28T04:54:52.075Z,101248.11
2022-11-28T04:56:01.805Z,101243.77
2022-11-28T04:57:26.793Z,101244.62
2022-11-28T04:58:33.738Z,101237.55
2022-11-28T04:59:39.787Z,101242.02
2022-11-28T05:00:45.733Z,101248.16
2022-11-28T05:01:50.765Z,101242.88
2022-11-28T05:02:56.458Z,101241.17
2022-11-28T05:04:01.123Z,101249.95
2022-11-28T05:05:10.961Z,101249.95
2022-11-28T05:07:46.120Z,101250.76
2022-11-28T05:08:50.054Z,101251.61
2022-11-28T05:09:53.965Z,101248.92
2022-11-28T05:10:58.041Z,101254.21
2022-11-28T05:12:01.986Z,101251.48
2022-11-28T05:13:06.268Z,101252.42
2022-11-28T05:14:10.237Z,101252.42
2022-11-28T05:15:14.505Z,101252.42
2022-11-28T05:16:20.768Z,101257.83
2022-11-28T05:17:24.787Z,101260.52
2022-11-28T05:18:28.746Z,101255.31
2022-11-28T05:19:32.860Z,101255.36
2022-11-28T05:20:38.564Z,101257.14
2022-11-28T05:21:42.623Z,101254.50
2022-11-28T05:22:46.552Z,101257.14
2022-11-28T05:23:50.557Z,101257.14
2022-11-28T05:24:54.570Z,101264.13
2022-11-28T05:25:58.435Z,101264.13
2022-11-28T05:27:02.505Z,101260.59
2022-11-28T05:28:06.496Z,101255.31
2022-11-28T05:29:10.410Z,101255.31
2022-11-28T05:30:15.037Z,101260.59
2022-11-28T05:31:22.460Z,101259.66
2022-11-28T05:32:27.960Z,101259.66
2022-11-28T05:33:33.326Z,101261.49
2022-11-28T05:34:37.904Z,101255.36
2022-11-28T05:35:51.100Z,101253.56
2022-11-28T05:37:01.521Z,101255.41
2022-11-28T05:38:13.387Z,101265.11
2022-11-28T05:39:16.163Z,101263.41
2022-11-28T05:40:20.433Z,101259.95
2022-11-28T05:41:46.691Z,101263.53
2022-11-28T05:42:49.115Z,101262.67
2022-11-28T05:43:54.261Z,101261.86
2022-11-28T05:44:58.351Z,101264.63
2022-11-28T05:46:05.686Z,101264.63
2022-11-28T05:47:11.565Z,101264.55
2022-11-28T05:48:17.102Z,101266.34
2022-11-28T05:49:27.662Z,101267.14
2022-11-28T05:50:29.740Z,101265.36
2022-11-28T05:51:33.683Z,101267.14
2022-11-28T05:52:37.621Z,101264.50
2022-11-28T05:53:41.676Z,101265.41
2022-11-28T05:54:45.669Z,101269.83
2022-11-28T05:55:49.667Z,101268.05
2022-11-28T05:56:53.605Z,101266.34
2022-11-28T05:57:59.247Z,101269.78
2022-11-28T05:59:03.269Z,101270.59
2022-11-28T06:00:08.098Z,101268.00
2022-11-28T06:01:21.046Z,101280.23
2022-11-28T06:02:25.121Z,101269.66
2022-11-28T06:03:29.118Z,101271.50
2022-11-28T06:04:33.130Z,101271.50
2022-11-28T06:05:43.818Z,101279.38
2022-11-28T06:06:48.460Z,101278.52
2022-11-28T06:07:52.533Z,101280.23
2022-11-28T06:08:56.438Z,101280.23
2022-11-28T06:10:00.434Z,101283.69
2022-11-28T06:11:21.052Z,101281.81
2022-11-28T06:12:20.146Z,101282.62
2022-11-28T06:13:24.518Z,101282.62
2022-11-28T06:14:44.895Z,101295.72
2022-11-28T06:15:45.768Z,101290.34
2022-11-28T06:16:51.313Z,101293.77
2022-11-28T06:17:55.879Z,101293.77
2022-11-28T06:19:02.444Z,101299.73
2022-11-28T06:20:07.496Z,101295.38
2022-11-28T06:21:16.488Z,101300.55
2022-11-28T06:22:47.115Z,101305.83
2022-11-28T06:23:43.800Z,101300.55
2022-11-28T06:24:50.399Z,101300.55
2022-11-28T06:25:54.394Z,101298.83
2022-11-28T06:26:58.298Z,101298.83
2022-11-28T06:28:02.205Z,101298.83
2022-11-28T06:29:06.222Z,101295.26
2022-11-28T06:30:10.565Z,101291.77
2022-11-28T06:31:16.791Z,101295.13
2022-11-28T06:32:22.251Z,101293.30
2022-11-28T06:33:26.368Z,101303.02
2022-11-28T06:34:30.445Z,101303.02
2022-11-28T06:35:34.425Z,101300.25
2022-11-28T06:36:38.886Z,101300.17
2022-11-28T06:37:42.853Z,101298.41
2022-11-28T06:38:47.147Z,101306.22
2022-11-28T06:39:51.159Z,101305.29
2022-11-28T06:41:03.789Z,101310.53
2022-11-28T06:42:07.749Z,101305.23
2022-11-28T06:43:11.579Z,101307.93
2022-11-28T06:44:16.751Z,101306.95
2022-11-28T06:45:20.607Z,101309.59
2022-11-28T06:46:24.716Z,101313.95
2022-11-28T06:47:28.718Z,101313.09
2022-11-28T06:48:32.624Z,101305.97
2022-11-28T06:49:36.585Z,101305.97
2022-11-28T06:50:40.597Z,101313.86
2022-11-28T06:51:44.645Z,101323.50
2022-11-28T06:52:48.494Z,101315.48
2022-11-28T06:53:52.416Z,101313.73
2022-11-28T06:54:56.243Z,101312.80
2022-11-28T06:56:05.974Z,101312.75
2022-11-28T06:57:09.814Z,101312.84
2022-11-28T06:58:13.721Z,101311.98
2022-11-28T06:59:17.566Z,101313.73
2022-11-28T07:00:21.603Z,101311.94
2022-11-28T07:01:28.877Z,101315.44
2022-11-28T07:02:33.363Z,101311.86
2022-11-28T07:03:38.147Z,101312.67
2022-11-28T07:04:42.058Z,101312.63
2022-11-28T07:05:45.975Z,101317.83
2022-11-28T07:06:49.891Z,101316.04
2022-11-28T07:07:54.813Z,101317.70
2022-11-28T07:08:59.566Z,101309.77
2022-11-28T07:10:04.209Z,101315.87
2022-11-28T07:11:14.221Z,101315.87
2022-11-28T07:12:18.356Z,101319.31
2022-11-28T07:13:22.352Z,101319.31
2022-11-28T07:14:26.379Z,101308.70
2022-11-28T07:15:30.293Z,101313.86
2022-11-28T07:16:34.631Z,101312.97
2022-11-28T07:17:38.911Z,101265.64
2022-11-28T07:18:42.984Z,101315.56
2022-11-28T07:19:51.929Z,101315.56
2022-11-28T07:20:52.524Z,101320.05
2022-11-28T07:21:56.440Z,101316.55
2022-11-28T07:23:00.346Z,101312.11
2022-11-28T07:24:04.339Z,101312.97
2022-11-28T07:25:08.586Z,101311.13
2022-11-28T07:26:15.091Z,101316.42
2022-11-28T07:27:19.748Z,101316.42
2022-11-28T07:28:24.911Z,101318.21
2022-11-28T07:29:28.926Z,101312.97
2022-11-28T07:30:33.052Z,101318.21
2022-11-28T07:31:39.276Z,101312.20
2022-11-28T07:32:43.209Z,101312.20
2022-11-28T07:33:50.041Z,101311.13
2022-11-28T07:34:55.073Z,101318.26
2022-11-28T07:36:08.313Z,101318.16
2022-11-28T07:37:12.194Z,101313.65
2022-11-28T07:38:16.129Z,101325.84
2022-11-28T07:39:20.045Z,101326.65
2022-11-28T07:40:24.017Z,101327.42
2022-11-28T07:41:29.000Z,101323.75
2022-11-28T07:42:32.832Z,101323.75
2022-11-28T07:43:37.072Z,101328.78
2022-11-28T07:44:41.134Z,101327.88
2022-11-28T07:45:59.987Z,101326.00
2022-11-28T07:46:52.908Z,101329.45
2022-11-28T07:47:56.459Z,101327.61
2022-11-28T07:49:01.059Z,101327.61
2022-11-28T07:50:05.725Z,101334.43
2022-11-28T07:51:12.278Z,101332.64
2022-11-28T07:52:16.500Z,101331.70
2022-11-28T07:53:20.452Z,101331.70
2022-11-28T07:54:25.930Z,101334.34
2022-11-28T07:55:29.943Z,101333.45
2022-11-28T07:57:04.421Z,101342.28
2022-11-28T07:57:42.517Z,101337.88
2022-11-28T07:58:47.982Z,101337.88
2022-11-28T07:59:52.050Z,101330.72
2022-11-28T08:00:56.171Z,101337.93
2022-11-28T08:02:00.116Z,101334.34
2022-11-28T08:03:04.237Z,101337.08
2022-11-28T08:04:10.450Z,101338.87
2022-11-28T08:05:14.491Z,101331.83
2022-11-28T08:06:21.471Z,101326.76
2022-11-28T08:07:26.964Z,101326.76
2022-11-28T08:08:31.025Z,101333.70
2022-11-28T08:09:35.053Z,101339.00
2022-11-28T08:10:38.992Z,101332.05
2022-11-28T08:11:43.170Z,101339.05
2022-11-28T08:12:50.485Z,101339.05
2022-11-28T08:13:58.035Z,101339.05
2022-11-28T08:15:02.097Z,101328.59
2022-11-28T08:16:15.182Z,101323.35
2022-11-28T08:17:19.261Z,101323.35
2022-11-28T08:18:24.056Z,101327.66
2022-11-28T08:19:31.912Z,101327.66
2022-11-28T08:20:33.734Z,101326.94
2022-11-28T08:21:39.607Z,101325.02
2022-11-28T08:22:43.464Z,101329.53
2022-11-28T08:23:47.797Z,101325.14
2022-11-28T08:24:51.659Z,101315.41
2022-11-28T08:25:55.601Z,101323.30
2022-11-28T08:26:59.683Z,101323.44
2022-11-28T08:28:03.868Z,101326.00
2022-11-28T08:29:07.728Z,101322.45
2022-11-28T08:30:11.896Z,101331.16
2022-11-28T08:31:21.460Z,101326.00
2022-11-28T08:32:25.379Z,101272.41
2022-11-28T08:33:29.255Z,101337.25
2022-11-28T08:34:33.136Z,101325.77
2022-11-28T08:35:39.639Z,101326.62
2022-11-28T08:36:43.614Z,101324.24
2022-11-28T08:37:47.604Z,101328.59
2022-11-28T08:39:57.482Z,101322.37
2022-11-28T08:41:04.138Z,101319.59
2022-11-28T08:42:10.020Z,101323.17
2022-11-28T08:43:13.619Z,101320.58
2022-11-28T08:44:17.589Z,101321.46
2022-11-28T08:45:21.434Z,101318.14
2022-11-28T08:46:25.408Z,101317.20
2022-11-28T08:47:31.304Z,101316.36
2022-11-28T08:48:37.042Z,101316.36
2022-11-28T08:49:41.153Z,101317.93
2022-11-28T08:50:50.023Z,101314.56
2022-11-28T08:51:54.039Z,101315.28
2022-11-28T08:53:01.804Z,101316.17
2022-11-28T08:54:05.269Z,101318.73
2022-11-28T08:55:09.570Z,101318.73
2022-11-28T08:56:16.714Z,101322.19
2022-11-28T08:57:20.723Z,101321.33
2022-11-28T08:58:24.590Z,101323.90
2022-11-28T08:59:28.584Z,101314.20
2022-11-28T09:00:32.571Z,101320.34
2022-11-28T09:01:38.115Z,101322.05
2022-11-28T09:02:42.153Z,101322.05
2022-11-28T09:03:46.890Z,101324.56
2022-11-28T09:04:50.882Z,101313.08
2022-11-28T09:05:57.649Z,101312.09
2022-11-28T09:07:01.580Z,101316.45
2022-11-28T09:08:10.425Z,101222.73
2022-11-28T09:09:12.750Z,101318.11
2022-11-28T09:10:17.095Z,101318.11
2022-11-28T09:11:22.665Z,101327.75
2022-11-28T09:12:27.897Z,101325.96
2022-11-28T09:13:33.697Z,101325.96
2022-11-28T09:14:39.404Z,101321.42
2022-11-28T09:15:50.076Z,101322.28
2022-11-28T09:16:52.738Z,101323.13
2022-11-28T09:17:56.713Z,101326.58
2022-11-28T09:19:00.739Z,101324.73
2022-11-28T09:20:05.972Z,101319.45
2022-11-28T09:21:12.660Z,101321.16
2022-11-28T09:22:16.645Z,101271.11
2022-11-28T09:23:20.600Z,101321.95
2022-11-28T09:24:24.444Z,101321.95
2022-11-28T09:25:28.417Z,101325.59
2022-11-28T09:26:34.085Z,101325.59
2022-11-28T09:27:37.963Z,101317.56
2022-11-28T09:28:44.909Z,101314.82
2022-11-28T09:29:48.137Z,101315.73
2022-11-28T09:30:55.071Z,101315.59
2022-11-28T09:31:59.057Z,101308.45
2022-11-28T09:33:02.901Z,101308.45
2022-11-28T09:34:06.910Z,101306.61
2022-11-28T09:35:10.833Z,101312.81
2022-11-28T09:36:17.204Z,101304.09
2022-11-28T09:37:21.204Z,101304.95
2022-11-28T09:38:28.751Z,101304.95
2022-11-28T09:39:44.286Z,101306.66
2022-11-28T09:40:46.325Z,101303.95
2022-11-28T09:42:11.352Z,101310.05
2022-11-28T09:43:24.288Z,101313.61
2022-11-28T09:44:43.270Z,101318.00
2022-11-28T09:45:50.259Z,101315.35
2022-11-28T09:46:57.718Z,101312.75
2022-11-28T09:48:07.494Z,101321.55
2022-11-28T09:49:17.191Z,101321.55
2022-11-28T09:50:24.103Z,101323.20
2022-11-28T09:51:56.282Z,101325.00
2022-11-28T09:53:12.047Z,101325.05
2022-11-28T09:54:38.631Z,101324.20
2022-11-28T09:55:48.362Z,101324.20
2022-11-28T09:56:52.398Z,101327.78
2022-11-28T09:57:57.576Z,101328.69
2022-11-28T09:59:02.131Z,101329.49
2022-11-28T10:00:08.740Z,101325.94
2022-11-28T10:03:22.091Z,101313.47
2022-11-28T10:04:48.334Z,101313.47
2022-11-28T10:06:07.294Z,101306.28
2022-11-28T10:07:22.799Z,101313.89
2022-11-28T10:08:50.701Z,101310.22
2022-11-28T10:09:57.711Z,101305.81
2022-11-28T10:11:13.470Z,101298.72
2022-11-28T10:12:36.980Z,101311.87
2022-11-28T10:15:13.538Z,101319.57
2022-11-28T10:16:23.363Z,101316.92
2022-11-28T10:17:46.921Z,101315.05
2022-11-28T10:19:03.088Z,101315.05
2022-11-28T10:20:12.951Z,101313.34
2022-11-28T10:21:28.793Z,101313.34
2022-11-28T10:22:47.475Z,101306.33
2022-11-28T10:23:54.373Z,101311.96
2022-11-28T10:25:02.363Z,101311.96
2022-11-28T10:26:18.207Z,101318.16
2022-11-28T10:27:27.012Z,101319.95
2022-11-28T10:28:38.117Z,101320.09
2022-11-28T10:29:59.867Z,101316.59
2022-11-28T10:31:21.825Z,101321.84
2022-11-28T10:32:32.920Z,101319.24
2022-11-28T10:33:45.828Z,101322.75
2022-11-28T10:35:27.936Z,101320.09
2022-11-28T10:36:37.003Z,101326.33
2022-11-28T10:37:41.010Z,101328.13
2022-11-28T10:38:44.942Z,101320.18
2022-11-28T10:39:50.113Z,101316.64
2022-11-28T10:41:06.292Z,101314.00
2022-11-28T10:42:15.883Z,101313.09
2022-11-28T10:43:39.164Z,101313.09
2022-11-28T10:44:48.818Z,101318.39
2022-11-28T10:45:58.436Z,101311.35
2022-11-28T10:47:05.467Z,101311.35
2022-11-28T10:48:39.687Z,101309.64
2022-11-28T10:49:26.713Z,101317.53
2022-11-28T10:50:59.383Z,101311.48
2022-11-28T10:52:31.944Z,101308.84
2022-11-28T10:54:05.807Z,101308.27
2022-11-28T10:55:27.583Z,101306.47
2022-11-28T10:56:37.444Z,101314.41
2022-11-28T10:57:56.162Z,101316.06
2022-11-28T10:59:03.100Z,101313.37
2022-11-28T11:00:12.878Z,101313.37
2022-11-28T11:01:17.129Z,101311.63
2022-11-28T11:02:24.168Z,101317.77
2022-11-28T11:03:35.799Z,101317.77
2022-11-28T11:04:41.420Z,101310.91
2022-11-28T11:05:45.489Z,101316.12
2022-11-28T11:07:09.956Z,101310.05
2022-11-28T11:08:19.099Z,101315.35
2022-11-28T11:09:23.038Z,101317.20
2022-11-28T11:10:35.696Z,101317.20
2022-11-28T11:11:42.652Z,101319.89
2022-11-28T11:12:48.873Z,101319.89
2022-11-28T11:13:58.549Z,101317.05
2022-11-28T11:15:20.961Z,101312.62
2022-11-28T11:16:26.653Z,101323.16
2022-11-28T11:17:36.790Z,101319.56
2022-11-28T11:18:49.742Z,101313.37
2022-11-28T11:19:53.977Z,101318.66
2022-11-28T11:21:18.879Z,101319.52
2022-11-28T11:22:25.679Z,101316.87
2022-11-28T11:23:32.795Z,101318.66
2022-11-28T11:27:23.161Z,101315.08
2022-11-28T11:28:41.622Z,101307.94
2022-11-28T11:29:49.262Z,101307.94
2022-11-28T11:30:54.512Z,101309.64
2022-11-28T11:31:59.159Z,101309.64
2022-11-28T11:33:05.946Z,101308.70
2022-11-28T11:34:21.620Z,101307.13
2022-11-28T11:35:29.283Z,101309.64
2022-11-28T11:36:37.628Z,101309.64
2022-11-28T11:37:41.722Z,101306.19
2022-11-28T11:38:45.619Z,101308.79
2022-11-28T11:39:53.835Z,101308.79
2022-11-28T11:40:57.819Z,101307.94
2022-11-28T11:42:04.735Z,101304.20
2022-11-28T11:43:26.813Z,101304.20
2022-11-28T11:44:33.410Z,101310.45
2022-11-28T11:45:37.785Z,101301.56
2022-11-28T11:46:56.275Z,101299.86
2022-11-28T11:48:01.323Z,101308.98
2022-11-28T11:49:05.332Z,101308.98
2022-11-28T11:50:12.300Z,101312.56
2022-11-28T11:51:24.960Z,101305.48
2022-11-28T11:52:28.825Z,101310.05
2022-11-28T11:53:32.818Z,101311.77
2022-11-28T11:54:36.875Z,101308.17
2022-11-28T11:55:52.948Z,101301.17
2022-11-28T11:57:24.894Z,100817.69
2022-11-28T11:58:09.978Z,101308.45
2022-11-28T11:59:30.565Z,101303.43
2022-11-28T12:00:37.531Z,101303.48
2022-11-28T12:01:44.859Z,101300.97
2022-11-28T12:03:00.716Z,101310.70
2022-11-28T12:04:37.173Z,101305.33
2022-11-28T12:05:17.999Z,101309.62
2022-11-28T12:06:24.943Z,101309.90
2022-11-28T12:07:34.873Z,101309.90
2022-11-28T12:08:54.075Z,101310.03
2022-11-28T12:10:04.095Z,101309.23
2022-11-28T12:11:09.958Z,101306.72
2022-11-28T12:12:28.766Z,101308.45
2022-11-28T12:13:34.455Z,101307.52
2022-11-28T12:14:38.543Z,101317.44
2022-11-28T12:15:54.023Z,101307.89
2022-11-28T12:17:46.977Z,101306.91
2022-11-28T12:18:30.545Z,101311.34
2022-11-28T12:19:40.105Z,101314.92
2022-11-28T12:21:06.408Z,101312.20
2022-11-28T12:22:19.434Z,101314.84
2022-11-28T12:23:29.279Z,101314.84
2022-11-28T12:24:52.518Z,101315.83
2022-11-28T12:26:23.420Z,101323.12
2022-11-28T12:27:32.838Z,101319.67
2022-11-28T12:28:48.055Z,101269.76
2022-11-28T12:30:09.541Z,101230.17
2022-11-28T12:31:44.917Z,101316.48
2022-11-28T12:33:09.274Z,101312.00
2022-11-28T12:34:18.787Z,101311.06
2022-11-28T12:37:06.441Z,100815.28
2022-11-28T12:38:29.670Z,101324.16
2022-11-28T12:39:42.906Z,101315.37
2022-11-28T12:41:12.310Z,101315.28
2022-11-28T12:42:35.629Z,101317.03
2022-11-28T12:44:01.440Z,101315.28
2022-11-28T12:45:23.436Z,101319.72
2022-11-28T12:46:30.457Z,101309.35
2022-11-28T12:47:55.379Z,101311.20
2022-11-28T12:49:24.290Z,101312.98
2022-11-28T12:50:32.380Z,101311.24
2022-11-28T12:51:44.071Z,101311.24
2022-11-28T12:53:06.090Z,101321.10
2022-11-28T12:54:46.093Z,101321.10
2022-11-28T12:55:57.510Z,101317.65
2022-11-28T12:57:21.772Z,101322.08
2022-11-28T12:58:43.674Z,101331.13
2022-11-28T13:00:09.968Z,101324.98
2022-11-28T13:01:50.712Z,101332.84
2022-11-28T13:03:03.873Z,101332.84
2022-11-28T13:04:27.254Z,101330.15
2022-11-28T13:05:41.253Z,101333.77
2022-11-28T13:07:05.749Z,101333.77
2022-11-28T13:08:27.791Z,101328.48
2022-11-28T13:09:47.278Z,101339.92
2022-11-28T13:11:19.662Z,101333.77
2022-11-28T13:12:44.740Z,101342.52
2022-11-28T13:13:56.996Z,101327.63
2022-11-28T13:15:09.675Z,101327.63
2022-11-28T13:16:31.795Z,101339.97
2022-11-28T13:17:44.738Z,101338.34
2022-11-28T13:18:54.708Z,101339.19